Fidelity, Missouri
Current Conditions -  °F | °C
As of 7:53 AM on Friday 28 Nov 2014 (Local Time) from KJLN Reporting Station
Clear Clear  
Wind Chill: 33°   Ceiling: Unl
Heat Index: 42°   Visibility: 10mi
Dew Point: 26°   Wind: 21mph
Humidity: 53%   Direction: 180°S
Pressure: 30.09"   Gusts: 29mph
Location:  37.1542°N, 94.2882°W
Report Text: KJLN 281353Z 18018G25KT 10SM CLR 06/M03 A3009 RMK AO2 PK WND 20026/1310 SLP194 T00561033
Loading
Personal Weather Stations






























Interactive Weather Map New forecast layout! Learn more

10-Day Weather Forecast

Advertisements
Track Severe Weather on mobile